Piney Creek, North Carolina
Current Conditions -  °F | °C
As of 3:15 PM on Monday 26 Jan 2015 (Local Time) from KGEV Reporting Station
Overcast Overcast  
Wind Chill: 22°   Ceiling: 3000
Heat Index: 34°   Visibility: 10mi
Dew Point: 26°   Wind: 23mph
Humidity: 74%   Direction: 290°WNW
Pressure: 29.59"   Gusts: 31mph
Location:  36.55°N, 81.29°W
Report Text: KGEV 262015Z AUTO 29020G27KT 10SM SCT016 OVC030 01/M03 A2959 RMK AO2 T00111031
Loading
Personal Weather Stations






























Interactive Weather Map New forecast layout! Learn more

10-Day Weather Forecast

Advertisements
Track Severe Weather on mobile